sensor_id;sensor_type;location;lat;lon;timestamp;pressure;altitude;pressure_sealevel;temperature;humidity
61692;BME280;49337;48.078;11.486;2022-11-20T11:39:26;99161.96;;;18.13;42.82
61692;BME280;49337;48.078;11.486;2022-11-20T11:41:54;99160.77;;;19.44;39.77
61692;BME280;49337;48.078;11.486;2022-11-20T11:44:24;99157.97;;;19.85;38.87
61692;BME280;49337;48.078;11.486;2022-11-20T11:46:55;99164.47;;;20.24;37.88
61692;BME280;49337;48.078;11.486;2022-11-20T11:49:23;99158.72;;;21.05;37.62
61692;BME280;49337;48.078;11.486;2022-11-20T11:52:01;99157.38;;;20.73;37.24
61692;BME280;49337;48.078;11.486;2022-11-20T11:54:31;99156.87;;;20.91;36.96
61692;BME280;49337;48.078;11.486;2022-11-20T11:57:10;99155.14;;;20.95;36.92
61692;BME280;49337;48.078;11.486;2022-11-20T11:59:47;99155.32;;;19.85;34.93
61692;BME280;49337;48.078;11.486;2022-11-20T12:02:31;99147.55;;;20.69;34.89
61692;BME280;49337;48.078;11.486;2022-11-20T12:05:03;99146.27;;;20.96;34.69
61692;BME280;49337;48.078;11.486;2022-11-20T12:07:41;99148.32;;;21.06;35.07
61692;BME280;49337;48.078;11.486;2022-11-20T12:10:17;99139.61;;;20.91;35.30
61692;BME280;49337;48.078;11.486;2022-11-20T12:12:51;99137.66;;;21.17;35.45
61692;BME280;49337;48.078;11.486;2022-11-20T12:15:30;99133.62;;;21.02;35.49
61692;BME280;49337;48.078;11.486;2022-11-20T12:17:58;99137.03;;;21.26;35.48
61692;BME280;49337;48.078;11.486;2022-11-20T12:20:28;99132.47;;;21.30;35.42
61692;BME280;49337;48.078;11.486;2022-11-20T12:23:01;99132.20;;;21.28;35.50
61692;BME280;49337;48.078;11.486;2022-11-20T12:25:34;99130.95;;;21.01;36.15
61692;BME280;49337;48.078;11.486;2022-11-20T12:28:19;99129.06;;;20.66;36.94
61692;BME280;49337;48.078;11.486;2022-11-20T12:31:02;99127.29;;;21.21;36.52
61692;BME280;49337;48.078;11.486;2022-11-20T12:33:47;99132.44;;;21.23;36.58
61692;BME280;49337;48.078;11.486;2022-11-20T12:36:22;99132.85;;;21.28;36.81
61692;BME280;49337;48.078;11.486;2022-11-20T12:39:13;99131.45;;;21.08;36.71
61692;BME280;49337;48.078;11.486;2022-11-20T12:41:50;99131.05;;;21.15;36.84
61692;BME280;49337;48.078;11.486;2022-11-20T12:44:31;99129.43;;;21.22;36.83
61692;BME280;49337;48.078;11.486;2022-11-20T12:47:11;99130.61;;;21.26;36.86
61692;BME280;49337;48.078;11.486;2022-11-20T12:49:48;99133.83;;;21.02;36.92
61692;BME280;49337;48.078;11.486;2022-11-20T12:52:26;99138.48;;;21.32;36.87
61692;BME280;49337;48.078;11.486;2022-11-20T12:55:07;99132.10;;;21.32;36.94
61692;BME280;49337;48.078;11.486;2022-11-20T12:57:44;99123.63;;;21.10;37.02
61692;BME280;49337;48.078;11.486;2022-11-20T13:00:19;99120.34;;;21.12;37.15
61692;BME280;49337;48.078;11.486;2022-11-20T13:03:06;99118.61;;;21.13;37.21
61692;BME280;49337;48.078;11.486;2022-11-20T13:05:46;99116.89;;;21.14;37.18
61692;BME280;49337;48.078;11.486;2022-11-20T13:08:20;99116.02;;;21.47;37.67
61692;BME280;49337;48.078;11.486;2022-11-20T13:10:52;99118.65;;;21.14;37.40
61692;BME280;49337;48.078;11.486;2022-11-20T13:13:25;99122.66;;;21.43;37.54
61692;BME280;49337;48.078;11.486;2022-11-20T13:16:01;99123.53;;;21.42;37.82
61692;BME280;49337;48.078;11.486;2022-11-20T13:18:35;99118.73;;;20.89;38.15
61692;BME280;49337;48.078;11.486;2022-11-20T13:21:14;99116.73;;;20.96;38.43
61692;BME280;49337;48.078;11.486;2022-11-20T13:23:41;99113.46;;;21.00;38.03
61692;BME280;49337;48.078;11.486;2022-11-20T13:26:16;99112.81;;;21.32;37.97
61692;BME280;49337;48.078;11.486;2022-11-20T13:28:45;99110.58;;;21.39;37.96
61692;BME280;49337;48.078;11.486;2022-11-20T13:31:29;99109.76;;;21.42;37.91
61692;BME280;49337;48.078;11.486;2022-11-20T13:33:58;99099.70;;;21.17;38.05
61692;BME280;49337;48.078;11.486;2022-11-20T13:36:28;99100.97;;;21.47;37.86
61692;BME280;49337;48.078;11.486;2022-11-20T13:38:56;99098.07;;;21.18;37.80
61692;BME280;49337;48.078;11.486;2022-11-20T13:41:25;99097.05;;;21.47;37.82
61692;BME280;49337;48.078;11.486;2022-11-20T13:43:53;99093.86;;;21.21;38.09
61692;BME280;49337;48.078;11.486;2022-11-20T13:46:21;99100.70;;;21.43;38.04
61692;BME280;49337;48.078;11.486;2022-11-20T13:48:48;99105.21;;;21.07;38.57
61692;BME280;49337;48.078;11.486;2022-11-20T13:51:25;99107.31;;;21.17;38.74
61692;BME280;49337;48.078;11.486;2022-11-20T13:54:16;99106.42;;;20.99;38.58
61692;BME280;49337;48.078;11.486;2022-11-20T13:56:53;99103.56;;;21.12;38.40
61692;BME280;49337;48.078;11.486;2022-11-20T13:59:36;99101.85;;;21.44;38.32
61692;BME280;49337;48.078;11.486;2022-11-20T14:02:11;99105.17;;;21.46;38.36
61692;BME280;49337;48.078;11.486;2022-11-20T14:04:43;99103.08;;;21.68;38.40
61692;BME280;49337;48.078;11.486;2022-11-20T14:07:12;99094.12;;;21.16;38.51
61692;BME280;49337;48.078;11.486;2022-11-20T14:09:51;99092.07;;;21.15;38.63
61692;BME280;49337;48.078;11.486;2022-11-20T14:12:20;99093.54;;;21.42;38.57
61692;BME280;49337;48.078;11.486;2022-11-20T14:14:49;99095.46;;;21.18;38.46
61692;BME280;49337;48.078;11.486;2022-11-20T14:17:20;99095.40;;;21.40;38.77
61692;BME280;49337;48.078;11.486;2022-11-20T14:19:50;99093.59;;;21.45;38.54
61692;BME280;49337;48.078;11.486;2022-11-20T14:22:20;99101.26;;;21.45;38.66
61692;BME280;49337;48.078;11.486;2022-11-20T14:24:48;99095.24;;;21.66;38.67
61692;BME280;49337;48.078;11.486;2022-11-20T14:27:18;99092.27;;;21.16;38.68
61692;BME280;49337;48.078;11.486;2022-11-20T14:29:48;99092.45;;;21.17;38.71
61692;BME280;49337;48.078;11.486;2022-11-20T14:32:18;99092.05;;;21.43;38.70
61692;BME280;49337;48.078;11.486;2022-11-20T14:34:48;99085.98;;;21.42;38.73
61692;BME280;49337;48.078;11.486;2022-11-20T14:37:20;99078.08;;;21.38;38.82
61692;BME280;49337;48.078;11.486;2022-11-20T14:39:50;99072.42;;;21.40;38.82
61692;BME280;49337;48.078;11.486;2022-11-20T14:42:19;99071.50;;;21.39;38.90
61692;BME280;49337;48.078;11.486;2022-11-20T14:44:48;99071.37;;;21.13;39.01
61692;BME280;49337;48.078;11.486;2022-11-20T14:47:19;99073.95;;;21.12;39.03
61692;BME280;49337;48.078;11.486;2022-11-20T14:49:48;99071.30;;;21.08;39.21
61692;BME280;49337;48.078;11.486;2022-11-20T14:52:17;99070.29;;;21.12;39.13
61692;BME280;49337;48.078;11.486;2022-11-20T14:54:46;99067.59;;;21.36;39.21
61692;BME280;49337;48.078;11.486;2022-11-20T14:57:24;99061.23;;;21.09;39.20
61692;BME280;49337;48.078;11.486;2022-11-20T15:00:02;99059.22;;;21.11;39.23
61692;BME280;49337;48.078;11.486;2022-11-20T15:02:30;99054.77;;;21.32;39.38
61692;BME280;49337;48.078;11.486;2022-11-20T15:04:58;99050.78;;;21.09;39.30
61692;BME280;49337;48.078;11.486;2022-11-20T15:07:27;99049.71;;;20.98;39.55
61692;BME280;49337;48.078;11.486;2022-11-20T15:10:04;99043.66;;;21.30;39.41
61692;BME280;49337;48.078;11.486;2022-11-20T15:12:33;99044.12;;;20.90;39.70
61692;BME280;49337;48.078;11.486;2022-11-20T15:15:02;99042.00;;;20.96;39.50
61692;BME280;49337;48.078;11.486;2022-11-20T15:17:29;99043.56;;;20.93;39.50
61692;BME280;49337;48.078;11.486;2022-11-20T15:19:57;99039.00;;;20.99;39.69
61692;BME280;49337;48.078;11.486;2022-11-20T15:22:25;99040.79;;;20.85;39.48
61692;BME280;49337;48.078;11.486;2022-11-20T15:24:52;99041.28;;;21.38;39.49
61692;BME280;49337;48.078;11.486;2022-11-20T15:27:20;99039.12;;;20.99;39.27
61692;BME280;49337;48.078;11.486;2022-11-20T15:29:47;99039.28;;;21.34;39.14
61692;BME280;49337;48.078;11.486;2022-11-20T15:32:13;99035.13;;;21.07;39.50
61692;BME280;49337;48.078;11.486;2022-11-20T15:34:40;99035.04;;;21.20;39.25
61692;BME280;49337;48.078;11.486;2022-11-20T15:37:07;99027.80;;;21.22;39.11
61692;BME280;49337;48.078;11.486;2022-11-20T15:39:34;99021.11;;;21.20;39.27
61692;BME280;49337;48.078;11.486;2022-11-20T15:42:01;99020.14;;;21.34;39.02
61692;BME280;49337;48.078;11.486;2022-11-20T15:44:28;99021.20;;;21.14;38.89
61692;BME280;49337;48.078;11.486;2022-11-20T15:46:55;99017.42;;;21.10;39.03
61692;BME280;49337;48.078;11.486;2022-11-20T15:49:21;99017.11;;;21.14;38.95
61692;BME280;49337;48.078;11.486;2022-11-20T15:51:54;99016.58;;;21.13;39.06
61692;BME280;49337;48.078;11.486;2022-11-20T15:54:22;99013.15;;;21.42;38.94
61692;BME280;49337;48.078;11.486;2022-11-20T15:56:50;99006.70;;;21.16;38.89
61692;BME280;49337;48.078;11.486;2022-11-20T15:59:17;99012.83;;;21.17;38.96
61692;BME280;49337;48.078;11.486;2022-11-20T16:01:44;99011.11;;;21.19;38.93
61692;BME280;49337;48.078;11.486;2022-11-20T16:04:12;99011.04;;;21.18;38.96
61692;BME280;49337;48.078;11.486;2022-11-20T16:06:39;99009.40;;;20.94;39.05
61692;BME280;49337;48.078;11.486;2022-11-20T16:09:07;99007.52;;;21.15;39.03
61692;BME280;49337;48.078;11.486;2022-11-20T16:11:35;99008.92;;;21.42;39.09
61692;BME280;49337;48.078;11.486;2022-11-20T16:14:02;99003.18;;;21.15;39.12
61692;BME280;49337;48.078;11.486;2022-11-20T16:16:32;99006.46;;;21.40;39.16
61692;BME280;49337;48.078;11.486;2022-11-20T16:19:00;99002.22;;;21.06;39.28
61692;BME280;49337;48.078;11.486;2022-11-20T16:21:28;98997.36;;;21.08;39.29
61692;BME280;49337;48.078;11.486;2022-11-20T16:23:55;98990.58;;;21.14;39.08
61692;BME280;49337;48.078;11.486;2022-11-20T16:26:23;98986.76;;;20.95;39.57
61692;BME280;49337;48.078;11.486;2022-11-20T16:28:50;98985.44;;;21.08;39.28
61692;BME280;49337;48.078;11.486;2022-11-20T16:31:18;98981.61;;;21.32;39.27
61692;BME280;49337;48.078;11.486;2022-11-20T16:33:49;98981.15;;;20.92;39.53
61692;BME280;49337;48.078;11.486;2022-11-20T16:36:17;98983.40;;;20.86;39.67
61692;BME280;49337;48.078;11.486;2022-11-20T16:38:45;98980.88;;;20.97;39.51
61692;BME280;49337;48.078;11.486;2022-11-20T16:41:12;98983.35;;;21.10;39.68
61692;BME280;49337;48.078;11.486;2022-11-20T16:43:44;98984.42;;;21.15;39.67
61692;BME280;49337;48.078;11.486;2022-11-20T16:46:12;98981.47;;;21.13;39.67
61692;BME280;49337;48.078;11.486;2022-11-20T16:48:39;98985.23;;;20.95;39.54
61692;BME280;49337;48.078;11.486;2022-11-20T16:51:08;98980.44;;;21.23;39.32
61692;BME280;49337;48.078;11.486;2022-11-20T16:53:36;98978.59;;;21.20;39.63
61692;BME280;49337;48.078;11.486;2022-11-20T16:56:09;98980.57;;;21.18;39.68
61692;BME280;49337;48.078;11.486;2022-11-20T16:58:36;98981.79;;;20.90;39.71
61692;BME280;49337;48.078;11.486;2022-11-20T17:01:05;98978.83;;;21.16;39.72
61692;BME280;49337;48.078;11.486;2022-11-20T17:03:33;98976.83;;;21.06;39.46
61692;BME280;49337;48.078;11.486;2022-11-20T17:06:00;98971.15;;;20.88;39.73
61692;BME280;49337;48.078;11.486;2022-11-20T17:08:28;98973.39;;;21.04;39.43
61692;BME280;49337;48.078;11.486;2022-11-20T17:10:55;98969.19;;;21.10;39.34
61692;BME280;49337;48.078;11.486;2022-11-20T17:13:22;98966.62;;;21.12;39.29
61692;BME280;49337;48.078;11.486;2022-11-20T17:15:48;98956.98;;;21.39;39.25
61692;BME280;49337;48.078;11.486;2022-11-20T17:18:15;98956.33;;;21.38;39.34
61692;BME280;49337;48.078;11.486;2022-11-20T17:20:42;98950.36;;;21.16;39.16
61692;BME280;49337;48.078;11.486;2022-11-20T17:23:17;98955.93;;;20.96;39.38
61692;BME280;49337;48.078;11.486;2022-11-20T17:25:44;98958.65;;;21.06;39.30
61692;BME280;49337;48.078;11.486;2022-11-20T17:28:11;98953.28;;;21.06;39.34
61692;BME280;49337;48.078;11.486;2022-11-20T17:30:38;98945.43;;;21.42;39.21
61692;BME280;49337;48.078;11.486;2022-11-20T17:33:05;98941.84;;;21.48;39.12
61692;BME280;49337;48.078;11.486;2022-11-20T17:35:35;98941.77;;;21.01;39.57
61692;BME280;49337;48.078;11.486;2022-11-20T17:38:02;98940.04;;;21.34;39.44
61692;BME280;49337;48.078;11.486;2022-11-20T17:40:30;98931.90;;;21.29;39.48
61692;BME280;49337;48.078;11.486;2022-11-20T17:42:56;98932.26;;;20.90;39.61
61692;BME280;49337;48.078;11.486;2022-11-20T17:45:23;98927.00;;;20.95;39.80
61692;BME280;49337;48.078;11.486;2022-11-20T17:47:50;98922.27;;;21.27;39.80
61692;BME280;49337;48.078;11.486;2022-11-20T17:50:18;98916.39;;;20.97;39.97
61692;BME280;49337;48.078;11.486;2022-11-20T17:52:45;98915.68;;;21.02;39.99
61692;BME280;49337;48.078;11.486;2022-11-20T17:55:12;98917.51;;;21.18;39.78
61692;BME280;49337;48.078;11.486;2022-11-20T17:57:39;98911.49;;;20.88;39.96
61692;BME280;49337;48.078;11.486;2022-11-20T18:00:06;98907.48;;;21.40;39.93
61692;BME280;49337;48.078;11.486;2022-11-20T18:02:34;98904.87;;;21.16;40.00
61692;BME280;49337;48.078;11.486;2022-11-20T18:05:00;98901.91;;;21.21;39.86
61692;BME280;49337;48.078;11.486;2022-11-20T18:07:28;98897.54;;;21.23;39.82
61692;BME280;49337;48.078;11.486;2022-11-20T18:09:55;98893.51;;;21.22;39.83
61692;BME280;49337;48.078;11.486;2022-11-20T18:12:22;98890.37;;;21.21;39.84
61692;BME280;49337;48.078;11.486;2022-11-20T18:14:48;98888.15;;;21.26;39.74
61692;BME280;49337;48.078;11.486;2022-11-20T18:17:16;98881.66;;;20.69;40.34
61692;BME280;49337;48.078;11.486;2022-11-20T18:19:44;98881.44;;;21.16;40.09
61692;BME280;49337;48.078;11.486;2022-11-20T18:22:12;98879.18;;;21.26;39.88
61692;BME280;49337;48.078;11.486;2022-11-20T18:24:40;98881.90;;;21.36;39.80
61692;BME280;49337;48.078;11.486;2022-11-20T18:27:13;98880.49;;;21.39;39.79
61692;BME280;49337;48.078;11.486;2022-11-20T18:29:41;98885.79;;;21.46;39.75
61692;BME280;49337;48.078;11.486;2022-11-20T18:32:08;98889.06;;;21.48;39.72
61692;BME280;49337;48.078;11.486;2022-11-20T18:34:35;98889.61;;;21.36;39.95
61692;BME280;49337;48.078;11.486;2022-11-20T18:37:02;98889.59;;;21.49;39.72
61692;BME280;49337;48.078;11.486;2022-11-20T18:39:29;98882.38;;;21.52;39.64
61692;BME280;49337;48.078;11.486;2022-11-20T18:41:55;98876.36;;;21.11;39.62
61692;BME280;49337;48.078;11.486;2022-11-20T18:44:24;98868.28;;;21.56;39.59
61692;BME280;49337;48.078;11.486;2022-11-20T18:46:51;98862.66;;;21.61;39.53
61692;BME280;49337;48.078;11.486;2022-11-20T18:49:18;98857.28;;;21.62;39.45
61692;BME280;49337;48.078;11.486;2022-11-20T18:51:45;98852.69;;;21.60;39.49
61692;BME280;49337;48.078;11.486;2022-11-20T18:54:13;98847.24;;;21.57;39.55
61692;BME280;49337;48.078;11.486;2022-11-20T18:56:40;98842.44;;;21.61;39.46
61692;BME280;49337;48.078;11.486;2022-11-20T18:59:08;98839.85;;;21.62;39.52
61692;BME280;49337;48.078;11.486;2022-11-20T19:01:36;98839.29;;;21.62;39.46
61692;BME280;49337;48.078;11.486;2022-11-20T19:04:06;98834.48;;;21.63;39.53
61692;BME280;49337;48.078;11.486;2022-11-20T19:06:33;98827.19;;;21.61;39.50
61692;BME280;49337;48.078;11.486;2022-11-20T19:09:02;98823.13;;;21.61;39.45
61692;BME280;49337;48.078;11.486;2022-11-20T19:11:29;98822.15;;;21.64;39.45
61692;BME280;49337;48.078;11.486;2022-11-20T19:13:57;98817.73;;;21.41;39.45
61692;BME280;49337;48.078;11.486;2022-11-20T19:16:23;98816.42;;;21.65;39.45
61692;BME280;49337;48.078;11.486;2022-11-20T19:18:50;98817.60;;;21.65;39.50
61692;BME280;49337;48.078;11.486;2022-11-20T19:21:19;98812.31;;;21.47;39.42
61692;BME280;49337;48.078;11.486;2022-11-20T19:23:47;98811.44;;;21.69;39.46
61692;BME280;49337;48.078;11.486;2022-11-20T19:26:14;98803.89;;;21.71;39.35
61692;BME280;49337;48.078;11.486;2022-11-20T19:28:41;98807.86;;;21.70;39.39
61692;BME280;49337;48.078;11.486;2022-11-20T19:31:09;98805.04;;;21.65;39.46
61692;BME280;49337;48.078;11.486;2022-11-20T19:33:37;98801.75;;;21.66;39.42
61692;BME280;49337;48.078;11.486;2022-11-20T19:36:09;98797.91;;;21.69;39.37
61692;BME280;49337;48.078;11.486;2022-11-20T19:38:36;98801.27;;;21.49;39.29
61692;BME280;49337;48.078;11.486;2022-11-20T19:41:04;98798.74;;;21.49;39.33
61692;BME280;49337;48.078;11.486;2022-11-20T19:43:32;98799.82;;;21.75;39.27
61692;BME280;49337;48.078;11.486;2022-11-20T19:46:00;98797.13;;;21.74;39.23
61692;BME280;49337;48.078;11.486;2022-11-20T19:48:29;98794.53;;;21.66;39.38
61692;BME280;49337;48.078;11.486;2022-11-20T19:50:56;98789.91;;;21.15;39.73
61692;BME280;49337;48.078;11.486;2022-11-20T19:53:23;98783.21;;;21.51;39.53
61692;BME280;49337;48.078;11.486;2022-11-20T19:55:54;98780.77;;;21.57;39.45
61692;BME280;49337;48.078;11.486;2022-11-20T19:58:21;98775.39;;;21.38;39.45
61692;BME280;49337;48.078;11.486;2022-11-20T20:00:48;98770.00;;;21.41;39.41
61692;BME280;49337;48.078;11.486;2022-11-20T20:03:15;98767.42;;;21.61;39.40
61692;BME280;49337;48.078;11.486;2022-11-20T20:05:41;98764.24;;;21.59;39.48
61692;BME280;49337;48.078;11.486;2022-11-20T20:08:08;98757.36;;;21.66;39.38
61692;BME280;49337;48.078;11.486;2022-11-20T20:10:35;98762.51;;;21.66;39.43
61692;BME280;49337;48.078;11.486;2022-11-20T20:13:02;98758.42;;;21.36;39.69
61692;BME280;49337;48.078;11.486;2022-11-20T20:15:29;98760.29;;;21.58;39.72
61692;BME280;49337;48.078;11.486;2022-11-20T20:17:57;98758.22;;;21.26;40.30
61692;BME280;49337;48.078;11.486;2022-11-20T20:20:24;98754.52;;;21.47;39.88
61692;BME280;49337;48.078;11.486;2022-11-20T20:22:51;98755.82;;;21.34;39.77
61692;BME280;49337;48.078;11.486;2022-11-20T20:25:18;98752.67;;;21.56;39.74
61692;BME280;49337;48.078;11.486;2022-11-20T20:27:45;98757.40;;;21.58;39.72
61692;BME280;49337;48.078;11.486;2022-11-20T20:30:12;98751.83;;;21.59;39.67
61692;BME280;49337;48.078;11.486;2022-11-20T20:32:39;98750.92;;;21.39;39.66
61692;BME280;49337;48.078;11.486;2022-11-20T20:35:06;98751.45;;;21.64;39.56
61692;BME280;49337;48.078;11.486;2022-11-20T20:37:33;98754.34;;;21.36;39.64
61692;BME280;49337;48.078;11.486;2022-11-20T20:40:00;98751.09;;;21.56;39.62
61692;BME280;49337;48.078;11.486;2022-11-20T20:42:29;98743.55;;;21.60;39.57
61692;BME280;49337;48.078;11.486;2022-11-20T20:44:55;98739.69;;;21.36;39.51
61692;BME280;49337;48.078;11.486;2022-11-20T20:47:22;98738.97;;;21.56;39.59
61692;BME280;49337;48.078;11.486;2022-11-20T20:49:50;98737.08;;;21.54;39.67
61692;BME280;49337;48.078;11.486;2022-11-20T20:52:16;98735.15;;;21.51;39.53
61692;BME280;49337;48.078;11.486;2022-11-20T20:54:43;98735.15;;;21.54;39.52
61692;BME280;49337;48.078;11.486;2022-11-20T20:57:10;98728.39;;;21.48;39.64
61692;BME280;49337;48.078;11.486;2022-11-20T20:59:37;98723.92;;;21.51;39.55
61692;BME280;49337;48.078;11.486;2022-11-20T21:02:03;98723.62;;;21.49;39.55
61692;BME280;49337;48.078;11.486;2022-11-20T21:04:30;98719.87;;;21.55;39.45
61692;BME280;49337;48.078;11.486;2022-11-20T21:06:57;98717.08;;;21.49;39.55
61692;BME280;49337;48.078;11.486;2022-11-20T21:09:24;98714.26;;;21.45;39.76
61692;BME280;49337;48.078;11.486;2022-11-20T21:11:50;98710.93;;;21.48;39.64
61692;BME280;49337;48.078;11.486;2022-11-20T21:14:17;98708.56;;;21.40;39.65
61692;BME280;49337;48.078;11.486;2022-11-20T21:16:45;98705.07;;;21.52;39.58
61692;BME280;49337;48.078;11.486;2022-11-20T21:19:13;98697.44;;;21.55;39.54
61692;BME280;49337;48.078;11.486;2022-11-20T21:21:40;98701.69;;;21.52;39.45
61692;BME280;49337;48.078;11.486;2022-11-20T21:24:07;98695.21;;;21.52;39.39
61692;BME280;49337;48.078;11.486;2022-11-20T21:26:33;98691.74;;;21.26;39.51
61692;BME280;49337;48.078;11.486;2022-11-20T21:29:00;98694.24;;;21.37;39.77
61692;BME280;49337;48.078;11.486;2022-11-20T21:31:27;98691.56;;;21.40;39.78
61692;BME280;49337;48.078;11.486;2022-11-20T21:33:55;98687.95;;;21.19;39.83
61692;BME280;49337;48.078;11.486;2022-11-20T21:36:24;98690.30;;;21.41;39.87
61692;BME280;49337;48.078;11.486;2022-11-20T21:38:53;98687.32;;;21.40;39.88
61692;BME280;49337;48.078;11.486;2022-11-20T21:41:20;98678.18;;;21.08;40.12
61692;BME280;49337;48.078;11.486;2022-11-20T21:43:49;98682.98;;;21.35;40.01
61692;BME280;49337;48.078;11.486;2022-11-20T21:46:17;98674.98;;;21.85;39.95
61692;BME280;49337;48.078;11.486;2022-11-20T21:48:45;98670.67;;;21.32;40.01
61692;BME280;49337;48.078;11.486;2022-11-20T21:51:14;98661.83;;;21.30;40.06
61692;BME280;49337;48.078;11.486;2022-11-20T21:53:42;98664.78;;;21.36;39.94
61692;BME280;49337;48.078;11.486;2022-11-20T21:56:11;98657.29;;;21.42;39.71
61692;BME280;49337;48.078;11.486;2022-11-20T21:58:40;98655.04;;;21.44;39.68
61692;BME280;49337;48.078;11.486;2022-11-20T22:01:08;98658.78;;;21.46;39.59
61692;BME280;49337;48.078;11.486;2022-11-20T22:03:35;98662.41;;;21.45;39.58
61692;BME280;49337;48.078;11.486;2022-11-20T22:06:04;98668.51;;;21.43;39.55
61692;BME280;49337;48.078;11.486;2022-11-20T22:08:33;98663.27;;;21.45;39.54
61692;BME280;49337;48.078;11.486;2022-11-20T22:11:02;98649.94;;;21.48;39.54
61692;BME280;49337;48.078;11.486;2022-11-20T22:13:29;98656.46;;;21.71;39.62
61692;BME280;49337;48.078;11.486;2022-11-20T22:16:00;98658.17;;;21.45;39.68
61692;BME280;49337;48.078;11.486;2022-11-20T22:18:28;98662.09;;;21.23;39.79
61692;BME280;49337;48.078;11.486;2022-11-20T22:20:55;98659.83;;;21.41;39.97
61692;BME280;49337;48.078;11.486;2022-11-20T22:23:21;98656.02;;;21.41;40.03
61692;BME280;49337;48.078;11.486;2022-11-20T22:25:48;98654.12;;;21.40;39.98
61692;BME280;49337;48.078;11.486;2022-11-20T22:28:15;98663.08;;;21.44;39.74
61692;BME280;49337;48.078;11.486;2022-11-20T22:30:42;98664.41;;;21.19;39.81
61692;BME280;49337;48.078;11.486;2022-11-20T22:33:08;98657.33;;;21.41;39.93
61692;BME280;49337;48.078;11.486;2022-11-20T22:35:35;98663.85;;;21.67;39.99
61692;BME280;49337;48.078;11.486;2022-11-20T22:38:02;98660.41;;;21.40;39.90
61692;BME280;49337;48.078;11.486;2022-11-20T22:40:29;98655.95;;;21.37;39.98
61692;BME280;49337;48.078;11.486;2022-11-20T22:42:57;98650.41;;;21.38;39.98
61692;BME280;49337;48.078;11.486;2022-11-20T22:45:24;98648.11;;;21.38;39.98
61692;BME280;49337;48.078;11.486;2022-11-20T22:47:51;98647.80;;;21.37;39.91
61692;BME280;49337;48.078;11.486;2022-11-20T22:50:17;98634.63;;;21.36;39.90
61692;BME280;49337;48.078;11.486;2022-11-20T22:52:44;98636.03;;;21.35;40.04
61692;BME280;49337;48.078;11.486;2022-11-20T22:55:11;98643.16;;;21.32;40.13
61692;BME280;49337;48.078;11.486;2022-11-20T22:57:38;98652.85;;;21.34;40.13
61692;BME280;49337;48.078;11.486;2022-11-20T23:00:07;98654.91;;;21.34;40.04
61692;BME280;49337;48.078;11.486;2022-11-20T23:02:34;98649.93;;;21.37;40.09
61692;BME280;49337;48.078;11.486;2022-11-20T23:05:00;98645.80;;;21.40;39.97
61692;BME280;49337;48.078;11.486;2022-11-20T23:07:28;98647.62;;;21.35;40.11
61692;BME280;49337;48.078;11.486;2022-11-20T23:09:55;98649.58;;;21.33;40.26
61692;BME280;49337;48.078;11.486;2022-11-20T23:12:22;98651.07;;;21.35;40.23
61692;BME280;49337;48.078;11.486;2022-11-20T23:14:48;98651.85;;;21.29;40.22
61692;BME280;49337;48.078;11.486;2022-11-20T23:17:15;98650.18;;;21.29;40.32
61692;BME280;49337;48.078;11.486;2022-11-20T23:19:42;98657.17;;;21.30;40.17
61692;BME280;49337;48.078;11.486;2022-11-20T23:22:09;98656.85;;;21.04;40.34
61692;BME280;49337;48.078;11.486;2022-11-20T23:24:35;98659.96;;;21.26;40.30
61692;BME280;49337;48.078;11.486;2022-11-20T23:27:02;98660.91;;;21.02;40.27
61692;BME280;49337;48.078;11.486;2022-11-20T23:29:29;98660.01;;;21.03;40.14
61692;BME280;49337;48.078;11.486;2022-11-20T23:31:56;98661.04;;;21.48;40.36
61692;BME280;49337;48.078;11.486;2022-11-20T23:34:23;98656.23;;;21.23;40.37
61692;BME280;49337;48.078;11.486;2022-11-20T23:36:50;98652.68;;;21.19;40.30
61692;BME280;49337;48.078;11.486;2022-11-20T23:39:17;98655.71;;;21.18;40.36
61692;BME280;49337;48.078;11.486;2022-11-20T23:41:43;98652.98;;;21.18;40.38
61692;BME280;49337;48.078;11.486;2022-11-20T23:44:10;98652.81;;;21.19;40.38
61692;BME280;49337;48.078;11.486;2022-11-20T23:46:37;98648.50;;;21.16;40.33
61692;BME280;49337;48.078;11.486;2022-11-20T23:49:05;98649.61;;;21.41;40.35
61692;BME280;49337;48.078;11.486;2022-11-20T23:51:31;98649.43;;;21.39;40.38
61692;BME280;49337;48.078;11.486;2022-11-20T23:53:58;98646.74;;;21.11;40.36
61692;BME280;49337;48.078;11.486;2022-11-20T23:56:25;98645.08;;;21.14;40.29
61692;BME280;49337;48.078;11.486;2022-11-20T23:58:52;98643.67;;;21.11;40.27
